createdAt,value
2018-12-15T00:09:23.734Z,1.05
2018-12-15T00:24:26.289Z,1.04
2018-12-15T00:39:30.074Z,1.06
2018-12-15T00:54:34.094Z,0.95
2018-12-15T01:09:37.441Z,1.04
2018-12-15T01:24:40.002Z,0.92
2018-12-15T01:39:42.553Z,0.66
2018-12-15T01:54:45.115Z,0.55
2018-12-15T02:09:47.972Z,0.68
2018-12-15T02:24:50.548Z,0.66
2018-12-15T02:39:53.893Z,0.60
2018-12-15T02:54:56.683Z,0.62
2018-12-15T03:09:59.560Z,0.56
2018-12-15T03:25:02.210Z,0.39
2018-12-15T03:40:09.308Z,0.33
2018-12-15T03:55:12.086Z,0.25
2018-12-15T04:10:14.645Z,0.35
2018-12-15T04:25:18.064Z,0.61
2018-12-15T04:40:21.155Z,0.50
2018-12-15T04:55:25.958Z,0.25
2018-12-15T05:10:28.522Z,0.06
2018-12-15T05:25:32.318Z,0.32
2018-12-15T05:40:35.032Z,0.04
2018-12-15T05:55:37.582Z,-0.12
2018-12-15T06:10:40.805Z,0.43
2018-12-15T06:25:44.860Z,0.45
2018-12-15T06:40:47.410Z,0.41
2018-12-15T06:55:49.974Z,0.67
2018-12-15T07:10:52.798Z,1.18
2018-12-15T07:25:56.112Z,1.59
2018-12-15T07:40:58.673Z,1.81
2018-12-15T07:56:01.673Z,1.92
2018-12-15T08:26:55.802Z,2.85
2018-12-15T08:41:58.355Z,2.91
2018-12-15T08:57:00.904Z,3.09
2018-12-15T09:12:03.469Z,3.56
2018-12-15T09:27:06.013Z,3.85
2018-12-15T09:42:09.389Z,3.79
2018-12-15T09:57:12.249Z,3.83
2018-12-15T10:12:15.581Z,3.91
2018-12-15T10:27:18.147Z,4.00
2018-12-15T10:42:20.700Z,3.85
2018-12-15T10:57:25.188Z,3.92
2018-12-15T11:12:28.626Z,3.86
2018-12-15T11:27:31.895Z,3.83
2018-12-15T11:42:35.334Z,3.93
2018-12-15T11:57:38.447Z,3.87
2018-12-15T12:12:42.908Z,3.93
2018-12-15T12:27:46.441Z,3.98
2018-12-15T12:42:49.372Z,4.13
2018-12-15T12:57:54.011Z,3.96
2018-12-15T13:12:58.099Z,3.96
2018-12-15T13:28:02.284Z,3.93
2018-12-15T13:43:04.952Z,3.97
2018-12-15T13:58:07.841Z,3.87
2018-12-15T14:13:11.316Z,3.81
2018-12-15T14:28:14.237Z,3.83
2018-12-15T14:43:16.889Z,3.53
2018-12-15T14:58:19.449Z,3.32
2018-12-15T15:13:23.093Z,3.47
2018-12-15T15:28:26.428Z,3.35
2018-12-15T15:43:28.994Z,3.33
2018-12-15T15:58:32.401Z,3.03
2018-12-15T16:13:35.997Z,3.01
2018-12-15T16:28:38.938Z,3.03
2018-12-15T16:43:41.730Z,2.63
2018-12-15T16:58:44.289Z,2.57
2018-12-15T17:13:46.921Z,2.56
2018-12-15T17:28:49.484Z,2.82
2018-12-15T17:43:53.605Z,2.77
2018-12-15T17:58:56.513Z,2.97
2018-12-15T18:13:59.541Z,3.05
2018-12-15T18:29:03.492Z,3.04
2018-12-15T18:44:06.072Z,3.32
2018-12-15T18:59:09.399Z,3.24
2018-12-15T19:14:13.216Z,3.13
2018-12-15T19:29:15.784Z,2.53
2018-12-15T19:44:18.360Z,2.66
2018-12-15T19:59:22.375Z,2.89
2018-12-15T20:14:25.109Z,2.58
2018-12-15T20:29:27.912Z,2.41
2018-12-15T20:44:30.764Z,2.39
2018-12-15T20:59:35.049Z,2.52
2018-12-15T21:14:37.833Z,2.70
2018-12-15T21:29:41.020Z,2.60
2018-12-15T21:44:43.777Z,2.91
2018-12-15T21:59:46.642Z,2.68
2018-12-15T22:14:50.426Z,2.88
2018-12-15T22:29:53.284Z,2.58
2018-12-15T22:44:56.508Z,2.30
2018-12-15T22:59:59.454Z,2.44
2018-12-15T23:15:02.044Z,2.54
2018-12-15T23:30:06.724Z,2.28
2018-12-15T23:45:10.899Z,2.97
